createdAt,value
2023-02-07T00:02:21.101Z,20.13
2023-02-07T00:04:51.823Z,21.00
2023-02-07T00:07:22.807Z,20.37
2023-02-07T00:09:53.280Z,20.90
2023-02-07T00:12:25.302Z,20.50
2023-02-07T00:14:56.161Z,20.57
2023-02-07T00:17:27.076Z,19.87
2023-02-07T00:19:57.590Z,20.47
2023-02-07T00:22:28.336Z,19.47
2023-02-07T00:24:59.517Z,19.13
2023-02-07T00:27:30.385Z,18.53
2023-02-07T00:30:01.256Z,18.80
2023-02-07T00:32:35.659Z,19.27
2023-02-07T00:35:07.038Z,18.77
2023-02-07T00:37:37.557Z,20.20
2023-02-07T00:40:08.922Z,18.83
2023-02-07T00:42:39.458Z,19.63
2023-02-07T00:45:10.765Z,19.70
2023-02-07T00:47:41.373Z,18.50
2023-02-07T00:50:11.994Z,19.07
2023-02-07T00:52:42.520Z,18.20
2023-02-07T00:55:13.135Z,18.27
2023-02-07T00:57:44.356Z,17.97
2023-02-07T01:00:15.451Z,18.50
2023-02-07T01:02:47.036Z,17.87
2023-02-07T01:05:19.261Z,19.37
2023-02-07T01:07:50.825Z,18.57
2023-02-07T01:10:24.174Z,19.90
2023-02-07T01:12:54.966Z,20.77
2023-02-07T01:15:25.644Z,21.50
2023-02-07T01:17:57.958Z,19.67
2023-02-07T01:20:30.179Z,19.80
2023-02-07T01:23:00.659Z,20.80
2023-02-07T01:25:31.661Z,20.03
2023-02-07T01:28:02.204Z,21.57
2023-02-07T01:30:33.256Z,19.57
2023-02-07T01:33:04.001Z,20.17
2023-02-07T01:35:38.861Z,20.23
2023-02-07T01:38:11.172Z,20.13
2023-02-07T01:40:43.502Z,20.33
2023-02-07T01:43:17.041Z,20.97
2023-02-07T01:45:47.724Z,20.03
2023-02-07T01:48:30.373Z,19.80
2023-02-07T01:51:04.213Z,20.77
2023-02-07T01:53:37.232Z,19.97
2023-02-07T01:56:12.008Z,20.67
2023-02-07T01:58:42.320Z,21.97
2023-02-07T02:01:16.089Z,21.63
2023-02-07T02:03:48.753Z,22.33
2023-02-07T02:06:22.922Z,22.87
2023-02-07T02:09:00.783Z,22.63
2023-02-07T02:11:34.559Z,22.17
2023-02-07T02:14:36.869Z,25.03
2023-02-07T02:17:16.365Z,22.17
2023-02-07T02:20:10.208Z,21.83
2023-02-07T02:23:17.633Z,22.07
2023-02-07T02:25:57.761Z,22.10
2023-02-07T02:28:52.797Z,21.80
2023-02-07T02:31:44.775Z,21.43
2023-02-07T02:34:30.421Z,19.17
2023-02-07T02:37:23.683Z,18.40
2023-02-07T02:40:12.824Z,18.83
2023-02-07T02:42:49.226Z,20.67
2023-02-07T02:45:25.343Z,22.50
2023-02-07T02:47:57.054Z,20.53
2023-02-07T02:50:32.203Z,20.37
2023-02-07T02:53:04.096Z,21.23
2023-02-07T02:55:57.201Z,22.70
2023-02-07T02:58:30.893Z,20.80
2023-02-07T03:01:07.669Z,20.23
2023-02-07T03:04:01.357Z,22.90
2023-02-07T03:06:56.197Z,21.73
2023-02-07T03:09:46.482Z,23.07
2023-02-07T03:12:28.852Z,21.40
2023-02-07T03:15:19.190Z,19.03
2023-02-07T03:18:13.766Z,18.63
2023-02-07T03:20:47.368Z,18.10
2023-02-07T03:23:20.974Z,17.00
2023-02-07T03:25:53.681Z,18.80
2023-02-07T03:28:26.677Z,17.00
2023-02-07T03:31:00.119Z,17.23
2023-02-07T03:33:32.440Z,17.87
2023-02-07T03:36:17.811Z,16.97
2023-02-07T03:38:48.695Z,18.23
2023-02-07T03:41:25.001Z,17.60
2023-02-07T03:43:58.139Z,20.90
2023-02-07T03:46:31.833Z,20.30
2023-02-07T03:49:02.930Z,18.60
2023-02-07T03:51:33.353Z,17.47
2023-02-07T03:54:05.516Z,17.57
2023-02-07T03:56:38.178Z,17.67
2023-02-07T03:59:10.169Z,16.93
2023-02-07T04:01:42.632Z,16.53
2023-02-07T04:04:13.624Z,17.53
2023-02-07T04:06:45.804Z,16.93
2023-02-07T04:09:17.223Z,17.63
2023-02-07T04:11:52.743Z,17.93
2023-02-07T04:14:23.415Z,17.03
2023-02-07T04:16:54.108Z,16.90
2023-02-07T04:19:24.904Z,16.17
2023-02-07T04:21:55.388Z,17.47
2023-02-07T04:24:26.251Z,16.97
2023-02-07T04:26:56.639Z,16.97
2023-02-07T04:29:27.336Z,15.90
2023-02-07T04:31:59.091Z,16.90
2023-02-07T04:34:29.596Z,17.03
2023-02-07T04:37:00.772Z,17.30
2023-02-07T04:39:31.126Z,18.50
2023-02-07T04:42:01.596Z,17.43
2023-02-07T04:44:32.228Z,19.10
2023-02-07T04:47:02.675Z,18.60
2023-02-07T04:49:34.600Z,17.97
2023-02-07T04:52:07.050Z,18.13
2023-02-07T04:54:37.645Z,17.97
2023-02-07T04:57:08.020Z,17.73
2023-02-07T04:59:38.908Z,18.57
2023-02-07T05:02:09.556Z,18.50
2023-02-07T05:04:40.151Z,17.70
2023-02-07T05:07:14.774Z,19.27
2023-02-07T05:09:43.052Z,18.83
2023-02-07T05:12:14.359Z,18.27
2023-02-07T05:14:47.556Z,17.47
2023-02-07T05:17:18.042Z,18.20
2023-02-07T05:19:49.944Z,17.50
2023-02-07T05:22:20.336Z,17.07
2023-02-07T05:24:50.939Z,16.97
2023-02-07T05:27:21.595Z,17.37
2023-02-07T05:29:53.221Z,16.67
2023-02-07T05:32:42.252Z,16.93
2023-02-07T05:35:14.197Z,17.00
2023-02-07T05:37:48.498Z,17.33
2023-02-07T05:40:19.326Z,16.47
2023-02-07T05:42:51.485Z,17.40
2023-02-07T05:45:23.106Z,17.40
2023-02-07T05:47:53.620Z,17.97
2023-02-07T05:50:24.614Z,16.93
2023-02-07T05:52:55.168Z,17.10
2023-02-07T05:55:25.813Z,17.77
2023-02-07T05:57:57.022Z,18.73
2023-02-07T06:00:27.599Z,19.00
2023-02-07T06:02:58.137Z,19.90
2023-02-07T06:05:30.419Z,20.90
2023-02-07T06:08:00.977Z,19.70
2023-02-07T06:10:43.446Z,19.83
2023-02-07T06:13:14.121Z,19.43
2023-02-07T06:15:46.286Z,20.27
2023-02-07T06:18:16.885Z,21.30
2023-02-07T06:20:50.115Z,21.37
2023-02-07T06:23:23.014Z,20.33
2023-02-07T06:25:53.605Z,26.07
2023-02-07T06:28:25.126Z,28.60
2023-02-07T06:30:56.045Z,29.03
2023-02-07T06:33:26.561Z,28.63
2023-02-07T06:35:58.711Z,26.63
2023-02-07T06:38:29.480Z,27.70
2023-02-07T06:41:01.962Z,28.97
2023-02-07T06:43:33.936Z,25.60
2023-02-07T06:46:04.700Z,27.60
2023-02-07T06:48:37.095Z,25.90
2023-02-07T06:51:08.136Z,25.77
2023-02-07T06:53:38.779Z,25.93
2023-02-07T06:56:09.372Z,27.20
2023-02-07T06:58:41.635Z,26.37
2023-02-07T07:01:16.389Z,26.97
2023-02-07T07:03:49.852Z,26.77
2023-02-07T07:06:20.368Z,27.23
2023-02-07T07:08:51.810Z,26.10
2023-02-07T07:11:22.702Z,26.97
2023-02-07T07:13:53.356Z,27.23
2023-02-07T07:16:31.417Z,29.00
2023-02-07T07:19:02.382Z,27.70
2023-02-07T07:21:33.510Z,28.03
2023-02-07T07:24:05.367Z,26.37
2023-02-07T07:26:48.380Z,26.00
2023-02-07T07:29:08.314Z,26.83
2023-02-07T07:31:38.881Z,27.67
2023-02-07T07:34:11.401Z,26.50
2023-02-07T07:36:42.116Z,26.70
2023-02-07T07:39:13.286Z,26.53
2023-02-07T07:41:44.290Z,27.10
2023-02-07T07:44:16.240Z,26.93
2023-02-07T07:46:48.552Z,27.77
2023-02-07T07:49:20.816Z,27.07
2023-02-07T07:51:51.375Z,27.40
2023-02-07T07:54:23.440Z,28.97
2023-02-07T07:56:54.081Z,28.53
2023-02-07T07:59:26.180Z,28.10
2023-02-07T08:01:56.673Z,27.17
2023-02-07T08:04:27.269Z,26.73
2023-02-07T08:06:57.799Z,24.97
2023-02-07T08:09:31.354Z,41.40
2023-02-07T08:12:01.877Z,28.20
2023-02-07T08:14:32.397Z,24.83
2023-02-07T08:17:03.044Z,27.67
2023-02-07T08:19:33.717Z,26.23
2023-02-07T08:22:06.326Z,24.37
2023-02-07T08:24:36.899Z,21.97
2023-02-07T08:27:07.551Z,20.83
2023-02-07T08:29:56.658Z,21.33
2023-02-07T08:32:27.215Z,22.87
2023-02-07T08:34:57.746Z,18.00
2023-02-07T08:37:29.767Z,20.40
2023-02-07T08:40:00.477Z,20.47
2023-02-07T08:42:30.891Z,18.70
2023-02-07T08:45:01.476Z,20.00
2023-02-07T08:47:32.498Z,20.43
2023-02-07T08:50:04.740Z,20.13
2023-02-07T08:52:36.899Z,19.30
2023-02-07T08:55:12.135Z,19.30
2023-02-07T08:57:42.718Z,18.73
2023-02-07T09:00:15.461Z,17.90
2023-02-07T09:02:50.653Z,16.77
2023-02-07T09:05:22.885Z,16.70
2023-02-07T09:07:53.354Z,17.07
2023-02-07T09:10:23.851Z,16.50
2023-02-07T09:12:54.740Z,15.83
2023-02-07T09:15:26.166Z,17.30
2023-02-07T09:17:57.452Z,18.37
2023-02-07T09:20:29.478Z,16.27
2023-02-07T09:23:19.417Z,15.50
2023-02-07T09:25:53.200Z,16.43
2023-02-07T09:28:23.744Z,16.17
2023-02-07T09:30:54.959Z,16.23
2023-02-07T09:33:25.834Z,15.47
2023-02-07T09:35:56.356Z,16.77
2023-02-07T09:38:26.899Z,16.53
2023-02-07T09:40:59.359Z,16.83
2023-02-07T09:43:52.846Z,17.03
2023-02-07T09:46:26.663Z,15.90
2023-02-07T09:49:09.606Z,15.97
2023-02-07T09:51:41.675Z,16.10
2023-02-07T09:54:21.370Z,16.63
2023-02-07T09:56:55.146Z,14.60
2023-02-07T09:59:48.487Z,15.93
2023-02-07T10:02:37.207Z,16.70
2023-02-07T10:05:14.724Z,17.67
2023-02-07T10:07:50.072Z,18.07
2023-02-07T10:10:23.523Z,16.93
2023-02-07T10:12:56.964Z,16.83
2023-02-07T10:15:42.996Z,16.17
2023-02-07T10:18:19.306Z,16.40
2023-02-07T10:21:02.676Z,16.43
2023-02-07T10:23:44.112Z,15.93
2023-02-07T10:26:20.383Z,15.83
2023-02-07T10:29:04.141Z,17.20
2023-02-07T10:31:39.324Z,16.83
2023-02-07T10:34:18.490Z,15.93
2023-02-07T10:36:52.514Z,15.93
2023-02-07T10:39:34.784Z,16.80
2023-02-07T10:42:07.982Z,16.43
2023-02-07T10:44:43.829Z,16.07
2023-02-07T10:47:19.128Z,17.30
2023-02-07T10:49:52.346Z,16.63
2023-02-07T10:52:36.188Z,15.83
2023-02-07T10:55:10.285Z,16.00
2023-02-07T10:57:45.908Z,15.60
2023-02-07T11:00:19.919Z,16.57
2023-02-07T11:03:14.737Z,16.60
2023-02-07T11:06:09.911Z,16.47
2023-02-07T11:08:45.142Z,15.17
2023-02-07T11:11:28.170Z,15.27
2023-02-07T11:14:04.506Z,14.60
2023-02-07T11:16:35.742Z,15.10
2023-02-07T11:19:08.274Z,13.77
2023-02-07T11:21:49.942Z,13.77
2023-02-07T11:24:25.260Z,14.27
2023-02-07T11:27:02.669Z,13.87
2023-02-07T11:29:39.211Z,14.23
2023-02-07T11:32:11.539Z,14.93
2023-02-07T11:34:46.082Z,15.37
2023-02-07T11:37:27.378Z,15.77
2023-02-07T11:40:17.697Z,16.07
2023-02-07T11:42:57.109Z,15.53
2023-02-07T11:45:30.374Z,15.80
2023-02-07T11:48:04.146Z,14.67
2023-02-07T11:50:39.707Z,15.80
2023-02-07T11:53:27.280Z,15.63
2023-02-07T11:55:58.493Z,15.83
2023-02-07T11:58:38.378Z,16.87
2023-02-07T12:01:09.708Z,15.87
2023-02-07T12:03:57.012Z,14.90
2023-02-07T12:06:31.077Z,15.13
2023-02-07T12:09:04.033Z,15.63
2023-02-07T12:11:37.696Z,15.40
2023-02-07T12:14:27.453Z,16.23
2023-02-07T12:17:01.194Z,15.07
2023-02-07T12:19:34.777Z,15.63
2023-02-07T12:22:23.684Z,15.43
2023-02-07T12:25:06.143Z,14.43
2023-02-07T12:27:39.653Z,14.60
2023-02-07T12:30:22.021Z,14.90
2023-02-07T12:33:00.382Z,15.97
2023-02-07T12:36:07.808Z,14.97
2023-02-07T12:39:16.858Z,14.83
2023-02-07T12:41:56.396Z,15.10
2023-02-07T12:44:37.816Z,15.90
2023-02-07T12:47:11.723Z,14.43
2023-02-07T12:49:57.440Z,15.20
2023-02-07T12:52:34.313Z,14.40
2023-02-07T12:55:29.117Z,14.43
2023-02-07T12:58:20.575Z,12.93
2023-02-07T13:01:03.400Z,14.03
2023-02-07T13:03:52.249Z,14.10
2023-02-07T13:06:40.809Z,13.83
2023-02-07T13:09:16.050Z,14.07
2023-02-07T13:12:10.925Z,13.37
2023-02-07T13:15:07.506Z,12.63
2023-02-07T13:17:57.312Z,12.73
2023-02-07T13:20:43.219Z,13.33
2023-02-07T13:23:22.467Z,12.70
2023-02-07T13:25:57.428Z,12.60
2023-02-07T13:28:33.991Z,12.57
2023-02-07T13:31:09.045Z,13.83
2023-02-07T13:33:44.020Z,14.60
2023-02-07T13:36:29.385Z,14.57
2023-02-07T13:39:02.991Z,14.27
2023-02-07T13:41:39.319Z,13.03
2023-02-07T13:44:17.362Z,12.90
2023-02-07T13:47:12.720Z,12.20
2023-02-07T13:49:51.943Z,13.90
2023-02-07T13:52:26.502Z,12.90
2023-02-07T13:55:16.266Z,13.03
2023-02-07T13:58:06.229Z,12.83
2023-02-07T14:00:44.572Z,13.83
2023-02-07T14:03:33.134Z,12.47
2023-02-07T14:06:25.839Z,12.03
2023-02-07T14:09:02.270Z,13.13
2023-02-07T14:11:44.988Z,12.10
2023-02-07T14:14:30.334Z,12.00
2023-02-07T14:17:09.193Z,12.83
2023-02-07T14:19:45.731Z,12.87
2023-02-07T14:22:23.166Z,11.67
2023-02-07T14:25:06.304Z,12.03
2023-02-07T14:27:44.821Z,12.07
2023-02-07T14:30:21.249Z,12.37
2023-02-07T14:33:07.908Z,10.87
2023-02-07T14:35:41.364Z,12.13
2023-02-07T14:38:23.984Z,11.73
2023-02-07T14:41:09.678Z,11.97
2023-02-07T14:43:36.075Z,11.47
2023-02-07T14:46:18.306Z,12.23
2023-02-07T14:48:57.018Z,15.90
2023-02-07T14:51:47.999Z,11.13
2023-02-07T14:54:42.152Z,9.93
2023-02-07T14:57:33.737Z,11.10
2023-02-07T15:00:10.636Z,10.97
2023-02-07T15:02:54.986Z,11.17
2023-02-07T15:05:35.230Z,10.40
2023-02-07T15:08:11.477Z,11.47
2023-02-07T15:11:01.196Z,11.63
2023-02-07T15:13:36.041Z,10.80
2023-02-07T15:16:10.021Z,10.70
2023-02-07T15:18:58.693Z,10.10
2023-02-07T15:21:37.772Z,10.67
2023-02-07T15:24:11.421Z,11.50
2023-02-07T15:26:42.298Z,10.93
2023-02-07T15:29:22.383Z,11.23
2023-02-07T15:31:55.754Z,11.20
2023-02-07T15:34:30.968Z,10.97
2023-02-07T15:37:03.891Z,10.83
2023-02-07T15:39:34.426Z,10.70
2023-02-07T15:42:06.643Z,11.60
2023-02-07T15:44:49.198Z,11.03
2023-02-07T15:47:36.792Z,11.47
2023-02-07T15:50:10.408Z,10.33
2023-02-07T15:52:49.479Z,11.20
2023-02-07T15:55:38.497Z,10.30
2023-02-07T15:58:10.851Z,10.97
2023-02-07T16:00:43.767Z,10.87
2023-02-07T16:03:20.303Z,10.80
2023-02-07T16:05:52.651Z,12.00
2023-02-07T16:08:32.158Z,11.60
2023-02-07T16:11:18.117Z,12.53
2023-02-07T16:13:55.819Z,12.83
2023-02-07T16:16:32.479Z,12.57
2023-02-07T16:19:09.351Z,12.30
2023-02-07T16:21:40.661Z,13.13
2023-02-07T16:24:14.237Z,12.20
2023-02-07T16:26:45.585Z,12.47
2023-02-07T16:29:22.486Z,11.93
2023-02-07T16:31:54.347Z,11.63
2023-02-07T16:34:28.962Z,12.30
2023-02-07T16:37:00.319Z,13.10
2023-02-07T16:39:30.831Z,13.33
2023-02-07T16:42:12.238Z,12.60
2023-02-07T16:44:43.297Z,12.47
2023-02-07T16:47:19.378Z,12.57
2023-02-07T16:49:49.994Z,12.07
2023-02-07T16:52:24.258Z,12.80
2023-02-07T16:54:55.569Z,12.43
2023-02-07T16:57:26.139Z,11.70
2023-02-07T16:59:56.928Z,11.77
2023-02-07T17:02:27.564Z,11.73
2023-02-07T17:04:58.024Z,12.60
2023-02-07T17:07:28.896Z,12.20
2023-02-07T17:10:00.291Z,11.73
2023-02-07T17:12:30.882Z,11.60
2023-02-07T17:15:04.102Z,12.03
2023-02-07T17:17:34.987Z,11.20
2023-02-07T17:20:08.383Z,11.37
2023-02-07T17:22:38.932Z,12.93
2023-02-07T17:25:09.786Z,11.27
2023-02-07T17:27:41.550Z,11.87
2023-02-07T17:30:32.361Z,11.90
2023-02-07T17:33:03.905Z,11.53
2023-02-07T17:35:35.705Z,11.47
2023-02-07T17:38:07.010Z,11.13
2023-02-07T17:40:40.157Z,11.63
2023-02-07T17:43:12.322Z,11.83
2023-02-07T17:45:42.816Z,12.00
2023-02-07T17:48:14.840Z,14.27
2023-02-07T17:50:45.815Z,13.23
2023-02-07T17:53:20.451Z,15.17
2023-02-07T17:55:53.721Z,17.57
2023-02-07T17:58:24.333Z,13.37
2023-02-07T18:00:57.483Z,13.13
2023-02-07T18:03:28.095Z,13.27
2023-02-07T18:06:01.264Z,13.27
2023-02-07T18:08:37.020Z,13.23
2023-02-07T18:11:08.704Z,13.93
2023-02-07T18:13:40.056Z,13.87
2023-02-07T18:16:16.710Z,12.70
2023-02-07T18:18:47.408Z,14.80
2023-02-07T18:21:19.445Z,12.80
2023-02-07T18:23:52.768Z,13.63
2023-02-07T18:26:24.125Z,13.90
2023-02-07T18:28:54.785Z,12.97
2023-02-07T18:31:26.149Z,13.53
2023-02-07T18:33:56.850Z,14.30
2023-02-07T18:36:29.157Z,15.17
2023-02-07T18:39:00.228Z,16.17
2023-02-07T18:41:30.876Z,16.00
2023-02-07T18:44:04.282Z,14.73
2023-02-07T18:46:36.017Z,16.37
2023-02-07T18:49:10.920Z,17.70
2023-02-07T18:51:42.260Z,18.73
2023-02-07T18:54:17.688Z,18.60
2023-02-07T18:56:49.881Z,17.67
2023-02-07T18:59:26.788Z,18.80
2023-02-07T19:01:58.955Z,17.40
2023-02-07T19:04:35.650Z,17.40
2023-02-07T19:07:07.888Z,17.57
2023-02-07T19:09:41.292Z,17.70
2023-02-07T19:12:11.792Z,15.23
2023-02-07T19:14:45.191Z,16.13
2023-02-07T19:17:16.361Z,17.53
2023-02-07T19:19:47.291Z,16.60
2023-02-07T19:22:26.727Z,14.80
2023-02-07T19:24:50.207Z,14.87
2023-02-07T19:27:23.014Z,13.90
2023-02-07T19:29:53.577Z,13.97
2023-02-07T19:32:26.982Z,16.63
2023-02-07T19:34:59.141Z,14.53
2023-02-07T19:37:31.163Z,15.27
2023-02-07T19:40:03.155Z,15.77
2023-02-07T19:42:33.801Z,15.27
2023-02-07T19:45:06.739Z,16.63
2023-02-07T19:47:37.405Z,15.17
2023-02-07T19:50:09.312Z,15.23
2023-02-07T19:52:42.568Z,16.03
2023-02-07T19:55:14.609Z,15.60
2023-02-07T19:57:45.487Z,15.23
2023-02-07T20:00:19.601Z,16.57
2023-02-07T20:02:52.580Z,14.77
2023-02-07T20:05:23.336Z,14.80
2023-02-07T20:07:55.194Z,16.97
2023-02-07T20:10:26.686Z,16.10
2023-02-07T20:12:58.219Z,19.80
2023-02-07T20:15:28.886Z,18.07
2023-02-07T20:18:00.997Z,16.20
2023-02-07T20:20:32.234Z,15.63
2023-02-07T20:23:04.054Z,16.50
2023-02-07T20:25:39.643Z,16.80
2023-02-07T20:28:10.373Z,16.40
2023-02-07T20:30:47.305Z,18.20
2023-02-07T20:33:19.831Z,16.67
2023-02-07T20:35:51.341Z,16.53
2023-02-07T20:38:21.902Z,17.60
2023-02-07T20:40:52.683Z,19.63
2023-02-07T20:43:24.296Z,18.87
2023-02-07T20:45:58.718Z,18.03
2023-02-07T20:48:29.225Z,16.70
2023-02-07T20:51:02.907Z,16.77
2023-02-07T20:53:33.789Z,17.77
2023-02-07T20:56:11.426Z,17.47
2023-02-07T20:58:43.765Z,16.33
2023-02-07T21:01:20.156Z,16.17
2023-02-07T21:03:53.224Z,16.43
2023-02-07T21:06:24.669Z,16.23
2023-02-07T21:09:02.496Z,15.43
2023-02-07T21:11:42.932Z,16.73
2023-02-07T21:14:29.436Z,16.57
2023-02-07T21:17:05.278Z,16.87
2023-02-07T21:19:37.605Z,16.87
2023-02-07T21:22:08.424Z,18.10
2023-02-07T21:24:42.909Z,16.33
2023-02-07T21:27:14.831Z,17.80
2023-02-07T21:29:45.510Z,17.60
2023-02-07T21:32:16.071Z,17.20
2023-02-07T21:34:48.586Z,17.83
2023-02-07T21:37:21.347Z,17.33
2023-02-07T21:39:54.756Z,18.43
2023-02-07T21:42:25.417Z,19.50
2023-02-07T21:44:57.798Z,17.73
2023-02-07T21:47:30.591Z,18.37
2023-02-07T21:50:04.687Z,18.43
2023-02-07T21:52:36.646Z,17.43
2023-02-07T21:55:11.279Z,18.83
2023-02-07T21:57:43.338Z,20.97
2023-02-07T22:00:15.035Z,19.10
2023-02-07T22:02:47.021Z,19.73
2023-02-07T22:05:17.758Z,19.53
2023-02-07T22:07:48.285Z,19.30
2023-02-07T22:10:20.433Z,19.77
2023-02-07T22:12:51.118Z,20.63
2023-02-07T22:15:23.215Z,21.60
2023-02-07T22:17:54.350Z,22.97
2023-02-07T22:20:27.971Z,23.37
2023-02-07T22:22:58.452Z,21.93
2023-02-07T22:25:30.639Z,21.33
2023-02-07T22:28:02.405Z,22.57
2023-02-07T22:30:35.322Z,21.70
2023-02-07T22:33:07.813Z,22.87
2023-02-07T22:35:40.113Z,20.50
2023-02-07T22:38:13.531Z,20.73
2023-02-07T22:40:45.890Z,20.23
2023-02-07T22:43:18.437Z,20.50
2023-02-07T22:45:49.731Z,20.40
2023-02-07T22:48:20.481Z,20.67
2023-02-07T22:50:53.605Z,20.90
2023-02-07T22:53:24.073Z,20.43
2023-02-07T22:55:54.949Z,21.17
2023-02-07T22:58:26.099Z,20.63
2023-02-07T23:00:57.893Z,20.73
2023-02-07T23:03:28.609Z,20.70
2023-02-07T23:05:59.111Z,21.07
2023-02-07T23:08:29.720Z,21.90
2023-02-07T23:11:00.364Z,20.53
2023-02-07T23:13:30.844Z,21.00
2023-02-07T23:16:02.428Z,24.07
2023-02-07T23:18:33.029Z,21.43
2023-02-07T23:21:03.746Z,22.73
2023-02-07T23:23:34.615Z,22.77
2023-02-07T23:26:07.991Z,21.90
2023-02-07T23:28:38.865Z,21.90
2023-02-07T23:31:13.089Z,22.43
2023-02-07T23:33:44.433Z,21.63
2023-02-07T23:36:17.733Z,21.13
2023-02-07T23:38:49.876Z,21.53
2023-02-07T23:41:21.482Z,21.00
2023-02-07T23:43:51.927Z,20.50
2023-02-07T23:46:22.480Z,20.80
2023-02-07T23:48:53.217Z,21.70
2023-02-07T23:51:23.965Z,23.30
2023-02-07T23:53:55.397Z,22.20
2023-02-07T23:56:26.139Z,21.57
2023-02-07T23:58:56.729Z,22.53
